Time;durP1;ratioP1;P1;durP2;ratioP2;P2;SDS_P1;SDS_P2;PMS_P1;PMS_P2;Temp;Humidity;BMP_temperature;BMP_pressure;BME280_temperature;BME280_humidity;BME280_pressure;Samples;Min_cycle;Max_cycle;Signal;HPM_P1;HPM_P2
2022/04/07 00:02:27;;;;;;;9.75;3.85;;;;;;;8.97;98.22;99186.63;5074873;28;20123;-76
2022/04/07 00:04:56;;;;;;;8.75;2.90;;;;;;;8.92;98.83;99172.72;5074959;28;20110;-76
2022/04/07 00:07:24;;;;;;;12.93;3.20;;;;;;;8.98;98.09;99171.78;5074707;28;20117;-76
2022/04/07 00:09:52;;;;;;;9.05;3.88;;;;;;;8.98;97.96;99158.72;5074545;28;20140;-76
2022/04/07 00:12:20;;;;;;;15.75;4.95;;;;;;;8.97;98.47;99165.69;5074450;28;20087;-76
2022/04/07 00:14:48;;;;;;;12.88;4.18;;;;;;;9.00;97.92;99175.28;5074559;28;20135;-77
2022/04/07 00:17:15;;;;;;;13.73;3.30;;;;;;;9.04;97.64;99163.91;5074763;28;20246;-77
2022/04/07 00:19:43;;;;;;;18.45;3.55;;;;;;;9.02;97.60;99163.91;5074452;28;20482;-76
2022/04/07 00:22:12;;;;;;;18.63;3.85;;;;;;;9.02;98.02;99168.28;5074599;28;20475;-74
2022/04/07 00:24:41;;;;;;;16.75;3.85;;;;;;;9.00;98.26;99160.44;5074416;28;20079;-76
2022/04/07 00:27:09;;;;;;;14.07;3.35;;;;;;;9.01;98.25;99150.84;5074904;28;20076;-77
2022/04/07 00:29:37;;;;;;;13.35;3.30;;;;;;;9.00;98.29;99149.13;5074339;28;20072;-77
2022/04/07 00:32:07;;;;;;;18.70;3.65;;;;;;;8.99;98.01;99135.19;5074462;28;20079;-78
2022/04/07 00:34:34;;;;;;;14.18;4.18;;;;;;;9.02;97.83;99127.31;5074338;28;20048;-79
2022/04/07 00:37:03;;;;;;;15.32;4.07;;;;;;;9.03;97.66;99130.78;5074621;28;20128;-80
2022/04/07 00:39:32;;;;;;;18.85;3.92;;;;;;;9.05;97.49;99110.72;5074870;28;20072;-80
2022/04/07 00:42:00;;;;;;;19.20;3.95;;;;;;;8.99;97.75;99121.25;5075331;28;20064;-81
2022/04/07 00:44:28;;;;;;;10.95;3.95;;;;;;;9.04;96.78;99119.47;5076503;28;20079;-81
2022/04/07 00:46:56;;;;;;;16.00;3.65;;;;;;;9.03;97.43;99102.03;5077100;28;20177;-81
2022/04/07 00:49:23;;;;;;;13.07;3.83;;;;;;;9.01;97.49;99091.59;5078309;28;20111;-78
2022/04/07 00:51:53;;;;;;;9.77;3.45;;;;;;;8.97;97.69;99104.69;5076495;28;20080;-80
2022/04/07 00:54:21;;;;;;;20.10;4.50;;;;;;;8.94;98.25;99097.75;5075985;28;20140;-79
2022/04/07 00:56:50;;;;;;;14.82;3.10;;;;;;;8.96;97.70;99090.75;5077050;28;20498;-78
2022/04/07 00:59:18;;;;;;;16.70;4.25;;;;;;;8.93;98.30;99085.56;5076000;28;20442;-81
2022/04/07 01:01:46;;;;;;;15.25;4.07;;;;;;;8.91;98.52;99071.63;5076907;28;20441;-80
2022/04/07 01:04:16;;;;;;;13.55;3.55;;;;;;;8.89;98.85;99076.00;5077104;28;20136;-80
2022/04/07 01:06:47;;;;;;;14.95;3.85;;;;;;;8.89;99.42;99068.16;5076980;28;20102;-80
2022/04/07 01:09:16;;;;;;;13.57;4.32;;;;;;;8.83;100.00;99058.63;5074206;28;20049;-75
2022/04/07 01:11:45;;;;;;;12.88;4.43;;;;;;;8.78;100.00;99067.38;5073784;28;20065;-75
2022/04/07 01:14:15;;;;;;;18.25;5.60;;;;;;;8.73;100.00;99046.50;5073847;28;20051;-75
2022/04/07 01:16:43;;;;;;;14.68;4.30;;;;;;;8.75;100.00;99039.50;5073725;28;20049;-76
2022/04/07 01:19:11;;;;;;;21.35;5.45;;;;;;;8.76;100.00;99051.69;5073769;28;20496;-74
2022/04/07 01:21:41;;;;;;;15.65;4.43;;;;;;;8.75;100.00;99044.75;5073847;28;20081;-75
2022/04/07 01:24:12;;;;;;;19.63;6.15;;;;;;;8.76;100.00;99037.75;5073378;28;20087;-75
2022/04/07 01:26:43;;;;;;;14.82;5.40;;;;;;;8.75;100.00;99026.44;5073126;28;20044;-75
2022/04/07 01:29:13;;;;;;;18.08;5.15;;;;;;;8.73;100.00;99011.66;5073055;28;20055;-76
2022/04/07 01:31:41;;;;;;;23.23;5.82;;;;;;;8.73;100.00;98994.22;5073176;28;20048;-74
2022/04/07 01:34:15;;;;;;;18.30;4.35;;;;;;;8.75;100.00;98997.69;5073438;28;20048;-74
2022/04/07 01:36:46;;;;;;;18.67;4.13;;;;;;;8.80;100.00;98995.91;5072902;28;20127;-75
2022/04/07 01:39:18;;;;;;;17.23;3.97;;;;;;;8.89;99.42;98996.69;5072983;28;20123;-76
2022/04/07 01:41:47;;;;;;;19.52;4.18;;;;;;;8.97;98.22;98987.03;5072770;28;20072;-74
2022/04/07 01:44:17;;;;;;;18.23;4.57;;;;;;;8.95;99.08;98978.34;5073055;28;20102;-74
2022/04/07 01:46:46;;;;;;;24.95;5.43;;;;;;;8.84;100.00;98981.94;5072750;28;20445;-77
2022/04/07 01:49:14;;;;;;;20.45;4.28;;;;;;;8.74;100.00;98959.38;5072958;28;20048;-75
2022/04/07 01:51:44;;;;;;;17.83;4.05;;;;;;;8.67;100.00;98951.59;5073105;28;20105;-76
2022/04/07 01:54:14;;;;;;;20.10;5.78;;;;;;;8.79;100.00;98947.13;5072668;28;20086;-74
2022/04/07 01:56:43;;;;;;;18.45;4.15;;;;;;;8.83;99.69;98940.13;5072920;28;20075;-74
2022/04/07 01:59:14;;;;;;;19.25;4.85;;;;;;;8.92;98.38;98944.38;5073050;28;20052;-74
2022/04/07 02:01:42;;;;;;;21.75;4.25;;;;;;;8.90;98.82;98946.16;5072529;28;20551;-76
2022/04/07 02:04:11;;;;;;;21.50;4.93;;;;;;;8.93;98.29;98943.50;5072537;28;20044;-75
2022/04/07 02:06:39;;;;;;;13.45;5.43;;;;;;;8.91;98.26;98960.97;5072771;28;20086;-76
2022/04/07 02:09:07;;;;;;;15.98;4.30;;;;;;;8.94;98.18;98932.16;5072681;28;20045;-76
2022/04/07 02:11:35;;;;;;;27.05;5.28;;;;;;;8.95;97.79;98933.91;5071887;28;20044;-76
2022/04/07 02:14:03;;;;;;;26.05;5.20;;;;;;;9.00;97.02;98945.16;5072732;28;20523;-76
2022/04/07 02:16:32;;;;;;;21.02;4.45;;;;;;;8.94;97.95;98940.00;5072587;28;20120;-77
2022/04/07 02:19:00;;;;;;;23.35;4.30;;;;;;;9.00;96.96;98934.72;5072160;28;20052;-76
2022/04/07 02:21:28;;;;;;;13.05;3.97;;;;;;;8.95;96.65;98926.91;5072613;28;20402;-74
2022/04/07 02:23:56;;;;;;;21.38;3.95;;;;;;;8.97;96.86;98921.69;5072264;28;20127;-75
2022/04/07 02:26:24;;;;;;;16.98;3.60;;;;;;;8.97;96.69;98903.38;5072381;28;20083;-73
2022/04/07 02:28:52;;;;;;;16.77;5.13;;;;;;;8.97;96.92;98906.00;5072072;28;20465;-74
2022/04/07 02:31:20;;;;;;;24.70;4.63;;;;;;;8.99;97.00;98904.22;5072492;28;20056;-73
2022/04/07 02:33:49;;;;;;;19.83;4.50;;;;;;;8.99;97.08;98901.59;5072076;28;20052;-74
2022/04/07 02:36:18;;;;;;;15.93;4.20;;;;;;;9.04;96.27;98900.66;5072548;28;20052;-73
2022/04/07 02:38:46;;;;;;;21.15;4.75;;;;;;;9.05;96.28;98901.53;5072016;28;20086;-72
2022/04/07 02:41:14;;;;;;;25.63;4.82;;;;;;;9.07;95.82;98898.03;5072118;28;20072;-73
2022/04/07 02:43:42;;;;;;;30.45;5.40;;;;;;;9.09;95.57;98885.78;5072194;28;20102;-72
2022/04/07 02:46:10;;;;;;;23.52;4.97;;;;;;;9.07;95.71;98868.41;5071933;28;20132;-73
2022/04/07 02:48:39;;;;;;;28.35;4.65;;;;;;;9.07;95.83;98869.25;5071624;28;20448;-73
2022/04/07 02:51:08;;;;;;;25.92;4.78;;;;;;;9.05;95.77;98870.16;5071790;28;20123;-73
2022/04/07 02:53:36;;;;;;;19.67;3.95;;;;;;;9.03;96.15;98872.78;5071976;28;20060;-72
2022/04/07 02:56:04;;;;;;;25.58;5.32;;;;;;;9.02;96.54;98864.97;5071499;28;20044;-73
2022/04/07 02:58:32;;;;;;;20.58;5.32;;;;;;;8.99;96.70;98844.94;5071816;28;20051;-73
2022/04/07 03:01:00;;;;;;;23.40;5.00;;;;;;;9.03;96.60;98848.41;5071481;28;20499;-73
2022/04/07 03:03:30;;;;;;;20.05;4.47;;;;;;;8.99;96.64;98817.94;5072316;28;20682;-78
2022/04/07 03:05:58;;;;;;;14.40;3.95;;;;;;;9.01;96.14;98824.88;5072787;28;20052;-80
2022/04/07 03:08:27;;;;;;;20.80;5.03;;;;;;;8.96;96.84;98820.59;5073133;28;20472;-79
2022/04/07 03:10:55;;;;;;;17.98;4.43;;;;;;;8.96;96.76;98807.53;5072729;28;20100;-74
2022/04/07 03:13:24;;;;;;;18.23;3.88;;;;;;;8.96;96.73;98823.22;5071618;28;20143;-73
2022/04/07 03:15:51;;;;;;;23.05;4.63;;;;;;;8.92;97.21;98804.09;5072172;28;20130;-79
2022/04/07 03:18:20;;;;;;;20.95;5.18;;;;;;;8.88;98.13;98805.00;5072344;28;20052;-80
2022/04/07 03:20:48;;;;;;;19.20;5.18;;;;;;;8.89;97.75;98796.28;5071819;28;20053;-77
2022/04/07 03:23:16;;;;;;;27.73;4.65;;;;;;;8.81;98.65;98788.53;5074065;28;20390;-77
2022/04/07 03:25:46;;;;;;;23.83;4.30;;;;;;;8.77;99.55;98786.84;5075856;28;20098;-77
2022/04/07 03:28:14;;;;;;;16.60;4.22;;;;;;;8.74;99.87;98771.19;5075772;28;20132;-76
2022/04/07 03:30:42;;;;;;;16.50;3.95;;;;;;;8.71;100.00;98765.13;5075442;28;20049;-76
2022/04/07 03:33:11;;;;;;;19.27;4.18;;;;;;;8.68;100.00;98759.94;5075524;28;20101;-75
2022/04/07 03:35:42;;;;;;;23.27;4.57;;;;;;;8.60;100.00;98748.72;5075787;28;20064;-75
2022/04/07 03:38:10;;;;;;;14.80;3.83;;;;;;;8.62;100.00;98732.16;5075661;28;20044;-75
2022/04/07 03:40:38;;;;;;;19.65;4.45;;;;;;;8.55;100.00;98722.66;5075194;28;20051;-74
2022/04/07 03:43:12;;;;;;;16.58;4.22;;;;;;;8.54;100.00;98726.16;5075404;28;20484;-75
2022/04/07 03:45:41;;;;;;;17.45;3.92;;;;;;;8.57;100.00;98713.03;5075792;28;20053;-75
2022/04/07 03:48:10;;;;;;;19.48;4.07;;;;;;;8.53;100.00;98693.06;5075708;28;20048;-76
2022/04/07 03:50:38;;;;;;;13.15;3.50;;;;;;;8.52;100.00;98681.75;5041173;28;20491;-75
2022/04/07 03:53:06;;;;;;;19.55;4.30;;;;;;;8.54;100.00;98663.44;5075981;28;20429;-76
2022/04/07 03:55:35;;;;;;;18.60;4.88;;;;;;;8.50;100.00;98656.53;5075660;28;20094;-75
2022/04/07 03:58:03;;;;;;;18.02;3.83;;;;;;;8.50;100.00;98656.53;5075244;28;20442;-75
2022/04/07 04:00:33;;;;;;;21.33;3.50;;;;;;;8.53;100.00;98646.03;5057953;28;20060;-76
2022/04/07 04:03:03;;;;;;;20.65;3.90;;;;;;;8.58;100.00;98639.00;5076048;28;20045;-75
2022/04/07 04:05:31;;;;;;;16.27;3.40;;;;;;;8.57;99.82;98621.59;5075988;28;20439;-76
2022/04/07 04:08:02;;;;;;;12.18;3.95;;;;;;;8.65;99.18;98621.50;5076177;28;20119;-76
2022/04/07 04:10:34;;;;;;;11.98;3.50;;;;;;;8.60;99.95;98615.47;5076412;28;20090;-74
2022/04/07 04:13:02;;;;;;;19.70;3.42;;;;;;;8.56;100.00;98593.75;5076132;28;20392;-75
2022/04/07 04:15:30;;;;;;;13.57;3.22;;;;;;;8.56;100.00;98590.28;5076060;28;20048;-75
2022/04/07 04:18:00;;;;;;;18.52;4.03;;;;;;;8.55;100.00;98581.56;5075964;28;20052;-76
2022/04/07 04:20:28;;;;;;;16.58;3.33;;;;;;;8.54;100.00;98579.84;5075373;28;20044;-75
2022/04/07 04:23:00;;;;;;;23.30;4.10;;;;;;;8.53;100.00;98567.66;5075592;28;20132;-76
2022/04/07 04:25:28;;;;;;;15.30;3.13;;;;;;;8.57;99.41;98569.34;5075650;28;20456;-75
2022/04/07 04:27:56;;;;;;;13.13;3.28;;;;;;;8.51;100.00;98545.94;5075612;28;20053;-75
2022/04/07 04:30:25;;;;;;;14.82;3.53;;;;;;;8.49;100.00;98545.09;5075755;28;20049;-74
2022/04/07 04:32:53;;;;;;;10.27;3.67;;;;;;;8.49;99.82;98539.88;5074690;28;20142;-74
2022/04/07 04:35:23;;;;;;;7.25;2.58;;;;;;;8.43;100.00;98545.19;5075135;28;20439;-74
2022/04/07 04:37:54;;;;;;;12.30;3.00;;;;;;;8.37;100.00;98533.06;5075416;28;20052;-75
2022/04/07 04:40:23;;;;;;;11.60;3.28;;;;;;;8.36;100.00;98528.72;5075473;28;20040;-74
2022/04/07 04:42:52;;;;;;;11.27;3.15;;;;;;;8.29;100.00;98524.50;5075407;28;20048;-74
2022/04/07 04:45:21;;;;;;;13.43;2.72;;;;;;;8.31;100.00;98516.63;5075579;28;20105;-74
2022/04/07 04:47:52;;;;;;;6.75;2.45;;;;;;;8.24;100.00;98502.81;5074989;28;20098;-74
2022/04/07 04:50:21;;;;;;;9.10;2.67;;;;;;;8.23;100.00;98515.88;5075175;28;20045;-73
2022/04/07 04:52:54;;;;;;;13.90;3.45;;;;;;;8.19;100.00;98495.03;5075381;28;20051;-74
2022/04/07 04:55:22;;;;;;;14.57;3.15;;;;;;;8.22;100.00;98493.25;5075328;28;20048;-74
2022/04/07 04:57:55;;;;;;;6.82;2.33;;;;;;;8.22;100.00;98478.47;5074730;28;20480;-75
2022/04/07 05:00:23;;;;;;;14.52;3.17;;;;;;;8.15;100.00;98467.25;5074899;28;20445;-74
2022/04/07 05:02:54;;;;;;;13.52;3.50;;;;;;;8.12;100.00;98476.88;5075134;28;20052;-74
2022/04/07 05:05:24;;;;;;;8.65;2.58;;;;;;;8.15;100.00;98469.00;5074628;28;20044;-73
2022/04/07 05:07:53;;;;;;;12.98;3.28;;;;;;;8.11;100.00;98455.13;5074903;28;20479;-73
2022/04/07 05:10:21;;;;;;;10.15;2.88;;;;;;;8.13;100.00;98474.22;5074763;28;20083;-73
2022/04/07 05:12:52;;;;;;;11.35;2.92;;;;;;;8.13;100.00;98469.00;5074147;28;20123;-73
2022/04/07 05:15:21;;;;;;;8.30;2.33;;;;;;;8.14;100.00;98446.38;5075331;28;20048;-74
2022/04/07 05:17:53;;;;;;;10.18;2.72;;;;;;;8.15;100.00;98448.09;5074411;28;20494;-74
2022/04/07 05:20:22;;;;;;;7.63;2.78;;;;;;;8.20;100.00;98460.19;5057459;28;20180;-75
2022/04/07 05:22:54;;;;;;;16.95;3.17;;;;;;;8.16;100.00;98468.97;5074547;28;20181;-75
2022/04/07 05:25:25;;;;;;;6.82;2.20;;;;;;;8.16;100.00;98484.63;5074744;28;20049;-74
2022/04/07 05:27:58;;;;;;;10.20;2.38;;;;;;;8.16;100.00;98526.41;5074573;28;20056;-76
2022/04/07 05:30:26;;;;;;;10.70;3.08;;;;;;;8.12;100.00;98578.69;5075166;28;20105;-76
2022/04/07 05:32:58;;;;;;;3.45;1.70;;;;;;;6.84;100.00;98593.94;5056669;28;20049;-76
2022/04/07 05:35:28;;;;;;;5.85;2.10;;;;;;;5.87;100.00;98590.16;5074229;28;20052;-75
2022/04/07 05:38:00;;;;;;;6.90;1.50;;;;;;;5.11;100.00;98594.69;5073936;28;20056;-75
2022/04/07 05:40:29;;;;;;;6.45;1.58;;;;;;;4.94;100.00;98599.88;5074459;28;20045;-75
2022/04/07 05:42:59;;;;;;;4.47;1.67;;;;;;;4.86;100.00;98597.28;5074304;28;20135;-75
2022/04/07 05:45:27;;;;;;;7.03;1.77;;;;;;;4.95;100.00;98611.16;5074059;28;20441;-75
2022/04/07 05:47:55;;;;;;;6.80;1.70;;;;;;;4.98;100.00;98600.75;5074926;28;20041;-75
2022/04/07 05:50:24;;;;;;;7.80;1.80;;;;;;;5.00;100.00;98594.69;5074888;28;20054;-75
2022/04/07 05:52:52;;;;;;;7.68;1.85;;;;;;;5.01;100.00;98591.22;5075043;28;20512;-75
2022/04/07 05:55:21;;;;;;;6.38;2.58;;;;;;;5.05;100.00;98584.31;5074698;28;20050;-75
2022/04/07 05:57:54;;;;;;;8.93;2.25;;;;;;;5.08;100.00;98589.50;5074693;28;20044;-75
2022/04/07 06:00:22;;;;;;;8.55;2.22;;;;;;;5.10;100.00;98598.16;5074901;28;20060;-75
2022/04/07 06:02:53;;;;;;;10.63;2.38;;;;;;;5.13;100.00;98593.81;5074916;28;20036;-73
2022/04/07 06:05:23;;;;;;;11.32;2.22;;;;;;;5.13;100.00;98599.00;5074282;28;20105;-72
2022/04/07 06:07:58;;;;;;;10.23;2.75;;;;;;;5.21;100.00;98598.97;5073628;28;20066;-71
2022/04/07 06:10:26;;;;;;;8.98;2.47;;;;;;;5.19;100.00;98582.56;5073839;28;20048;-70
2022/04/07 06:12:57;;;;;;;12.93;2.53;;;;;;;5.21;100.00;98575.59;5074362;28;20055;-71
2022/04/07 06:15:25;;;;;;;11.45;2.75;;;;;;;5.26;100.00;98566.06;5073908;28;20452;-71
2022/04/07 06:17:54;;;;;;;8.00;2.45;;;;;;;5.33;100.00;98548.72;5073649;28;20053;-71
2022/04/07 06:20:22;;;;;;;7.07;2.65;;;;;;;5.35;100.00;98532.25;5073574;28;20059;-70
2022/04/07 06:22:53;;;;;;;11.00;2.60;;;;;;;5.35;100.00;98515.78;5073646;28;20040;-72
2022/04/07 06:25:21;;;;;;;11.40;4.10;;;;;;;5.37;100.00;98524.44;5073683;28;20059;-71
2022/04/07 06:27:53;;;;;;;11.65;2.67;;;;;;;5.40;100.00;98535.69;5074090;28;20052;-71
2022/04/07 06:30:23;;;;;;;11.50;2.45;;;;;;;5.46;100.00;98535.69;5073115;28;20074;-71
2022/04/07 06:32:52;;;;;;;8.77;2.80;;;;;;;5.47;100.00;98526.16;5073062;28;20040;-71
2022/04/07 06:35:20;;;;;;;6.72;2.28;;;;;;;5.44;100.00;98533.94;5073578;28;20059;-71
2022/04/07 06:37:54;;;;;;;4.15;1.73;;;;;;;5.46;100.00;98530.47;5073118;28;20064;-71
2022/04/07 06:40:23;;;;;;;4.82;1.75;;;;;;;5.45;100.00;98512.28;5073724;28;20127;-72
2022/04/07 06:42:53;;;;;;;8.20;2.35;;;;;;;5.46;100.00;98512.28;5072651;28;20364;-72
2022/04/07 06:45:26;;;;;;;4.97;1.38;;;;;;;5.41;100.00;98511.44;5072947;28;20052;-72
2022/04/07 06:47:56;;;;;;;6.15;1.83;;;;;;;5.45;100.00;98502.75;5072928;28;20040;-72
2022/04/07 06:50:25;;;;;;;5.13;1.85;;;;;;;5.48;100.00;98492.34;5073286;28;20044;-71
2022/04/07 06:52:55;;;;;;;7.68;1.60;;;;;;;5.46;100.00;98483.69;5072729;28;20060;-71
2022/04/07 06:55:24;;;;;;;6.93;2.00;;;;;;;5.47;100.00;98467.22;5072599;28;20048;-72
2022/04/07 06:57:56;;;;;;;3.65;1.85;;;;;;;5.53;100.00;98476.72;5072220;28;20087;-76
2022/04/07 07:00:27;;;;;;;5.75;2.03;;;;;;;5.54;100.00;98473.25;5072721;28;20056;-77
2022/04/07 07:02:57;;;;;;;9.18;2.15;;;;;;;5.58;100.00;98457.63;5073221;28;20045;-76
2022/04/07 07:05:28;;;;;;;7.72;2.47;;;;;;;5.56;100.00;98446.38;5072508;28;20094;-75
2022/04/07 07:07:57;;;;;;;5.30;1.85;;;;;;;5.62;100.00;98449.81;5072426;28;20079;-76
2022/04/07 07:10:28;;;;;;;7.78;1.83;;;;;;;5.62;100.00;98453.28;5072177;28;20445;-75
2022/04/07 07:12:59;;;;;;;12.68;2.22;;;;;;;5.63;100.00;98465.41;5072337;28;20052;-72
2022/04/07 07:15:29;;;;;;;3.90;1.50;;;;;;;5.64;100.00;98435.06;5072566;28;20060;-76
2022/04/07 07:17:57;;;;;;;11.88;1.80;;;;;;;5.70;100.00;98415.09;5072496;28;20080;-75
2022/04/07 07:20:28;;;;;;;8.35;1.77;;;;;;;5.70;100.00;98380.44;5072500;28;20090;-73
2022/04/07 07:22:59;;;;;;;4.10;1.80;;;;;;;5.72;100.00;98381.28;5072056;28;20075;-77
2022/04/07 07:25:30;;;;;;;9.70;2.13;;;;;;;5.78;100.00;98371.72;5072041;28;20464;-72
2022/04/07 07:27:59;;;;;;;9.27;2.22;;;;;;;5.83;100.00;98389.88;5072285;28;20044;-73
2022/04/07 07:30:29;;;;;;;8.70;2.10;;;;;;;5.95;100.00;98383.75;5072255;28;20053;-73
2022/04/07 07:32:58;;;;;;;3.38;1.70;;;;;;;6.06;100.00;98372.41;5072199;28;20041;-73
2022/04/07 07:35:26;;;;;;;7.22;1.92;;;;;;;6.15;100.00;98361.91;5072182;28;20119;-73
2022/04/07 07:37:56;;;;;;;6.95;1.85;;;;;;;6.19;100.00;98361.00;5072795;28;20048;-77
2022/04/07 07:40:27;;;;;;;7.20;2.22;;;;;;;6.25;100.00;98344.44;5072429;28;20048;-73
2022/04/07 07:43:00;;;;;;;6.57;1.90;;;;;;;6.31;100.00;98365.22;5072966;28;20471;-78
2022/04/07 07:45:31;;;;;;;9.32;2.30;;;;;;;6.44;100.00;98360.75;5072913;28;20075;-73
2022/04/07 07:48:27;;;;;;;6.45;1.80;;;;;;;6.57;100.00;98359.75;5072683;28;20048;-74
2022/04/07 07:50:58;;;;;;;8.10;2.13;;;;;;;6.60;100.00;98362.31;5073264;28;20044;-77
2022/04/07 07:53:27;;;;;;;6.78;2.33;;;;;;;6.78;100.00;98369.09;5072840;28;20045;-77
2022/04/07 07:55:56;;;;;;;5.78;1.90;;;;;;;7.02;100.00;98367.94;5074041;28;20045;-77
2022/04/07 07:58:25;;;;;;;4.22;2.08;;;;;;;7.33;100.00;98363.16;5075890;28;20048;-79
2022/04/07 08:00:58;;;;;;;4.35;1.67;;;;;;;7.39;100.00;98366.56;5075868;28;20111;-79
2022/04/07 08:03:27;;;;;;;7.63;1.85;;;;;;;7.73;100.00;98360.88;5075338;28;20124;-78
2022/04/07 08:05:57;;;;;;;6.72;1.83;;;;;;;7.95;100.00;98359.66;5075193;28;20048;-79
2022/04/07 08:08:25;;;;;;;9.23;1.95;;;;;;;7.85;100.00;98352.84;5075090;28;20075;-79
2022/04/07 08:10:53;;;;;;;6.65;1.52;;;;;;;7.83;98.97;98354.63;5078157;28;20052;-77
2022/04/07 08:13:23;;;;;;;5.60;1.85;;;;;;;8.24;99.56;98364.41;5076691;28;20075;-73
2022/04/07 08:15:52;;;;;;;7.10;1.75;;;;;;;8.26;98.34;98360.03;5075828;28;20052;-72
2022/04/07 08:18:23;;;;;;;5.15;2.33;;;;;;;8.38;99.44;98374.63;5075765;28;20378;-74
2022/04/07 08:20:58;;;;;;;6.43;1.95;;;;;;;8.57;97.85;98356.88;5076523;28;20048;-78
2022/04/07 08:23:26;;;;;;;6.32;2.00;;;;;;;8.70;98.15;98356.63;5077467;28;20081;-78
2022/04/07 08:25:55;;;;;;;13.32;3.13;;;;;;;8.75;97.50;98360.00;5078766;28;20048;-79
2022/04/07 08:28:24;;;;;;;7.93;2.05;;;;;;;8.72;97.36;98361.81;5077904;28;20051;-79
2022/04/07 08:30:59;;;;;;;4.65;1.88;;;;;;;8.93;96.72;98355.31;5077570;28;20473;-72
2022/04/07 08:33:29;;;;;;;4.28;1.92;;;;;;;8.63;97.09;98357.63;5076433;28;20047;-77
2022/04/07 08:36:05;;;;;;;8.77;2.15;;;;;;;8.73;96.96;98369.63;5076503;28;20053;-72
2022/04/07 08:38:33;;;;;;;6.25;1.83;;;;;;;8.98;96.90;98366.53;5076254;28;20101;-71
2022/04/07 08:41:02;;;;;;;11.23;2.10;;;;;;;9.14;95.44;98357.50;5075168;28;20079;-71
2022/04/07 08:43:34;;;;;;;6.85;1.90;;;;;;;9.15;95.00;98360.09;5074976;28;20105;-76
2022/04/07 08:46:06;;;;;;;11.88;2.63;;;;;;;9.14;90.60;98367.97;5075972;28;20044;-76
2022/04/07 08:48:37;;;;;;;11.15;2.13;;;;;;;8.96;90.27;98365.72;5075957;28;20055;-76
2022/04/07 08:51:06;;;;;;;7.72;2.47;;;;;;;9.13;91.84;98368.84;5075675;28;20082;-76
2022/04/07 08:53:35;;;;;;;6.13;1.80;;;;;;;9.42;92.48;98381.28;5076009;28;20044;-76
2022/04/07 08:56:04;;;;;;;7.43;2.25;;;;;;;9.46;89.64;98375.97;5075824;28;20049;-76
2022/04/07 08:58:33;;;;;;;8.27;2.78;;;;;;;9.38;87.54;98388.34;5075590;28;20044;-76
2022/04/07 09:01:01;;;;;;;9.20;2.40;;;;;;;9.43;85.17;98385.63;5075197;28;20048;-71
2022/04/07 09:03:29;;;;;;;6.45;2.67;;;;;;;9.32;86.70;98393.75;5075195;28;20505;-75
2022/04/07 09:06:01;;;;;;;7.90;1.98;;;;;;;9.49;85.24;98388.13;5074969;28;20044;-78
2022/04/07 09:08:33;;;;;;;9.88;2.47;;;;;;;9.76;83.17;98373.56;5076013;28;20471;-76
2022/04/07 09:11:05;;;;;;;11.27;2.55;;;;;;;9.94;82.08;98383.63;5075193;28;20049;-73
2022/04/07 09:13:35;;;;;;;8.52;2.10;;;;;;;10.09;82.24;98391.13;5074726;28;20469;-73
2022/04/07 09:16:04;;;;;;;12.73;2.65;;;;;;;9.75;77.45;98383.19;5075017;28;20051;-73
2022/04/07 09:18:35;;;;;;;8.40;1.90;;;;;;;9.95;80.28;98387.97;5075704;28;20048;-77
2022/04/07 09:21:06;;;;;;;9.20;2.00;;;;;;;9.81;81.28;98395.28;5075062;28;20054;-74
2022/04/07 09:23:40;;;;;;;9.48;2.38;;;;;;;9.77;79.28;98409.31;5075736;28;20067;-75
2022/04/07 09:26:15;;;;;;;7.00;2.08;;;;;;;9.75;80.28;98396.25;5076547;28;20044;-76
2022/04/07 09:28:46;;;;;;;14.48;2.65;;;;;;;9.78;79.54;98413.66;5076237;28;20108;-74
2022/04/07 09:31:22;;;;;;;11.55;2.30;;;;;;;9.75;77.36;98413.72;5076274;28;20468;-73
2022/04/07 09:33:57;;;;;;;8.90;2.05;;;;;;;9.56;78.33;98422.88;5078431;28;20157;-74
2022/04/07 09:36:27;;;;;;;10.20;2.75;;;;;;;9.28;78.09;98412.13;5078761;28;20086;-73
2022/04/07 09:38:58;;;;;;;13.55;2.40;;;;;;;9.24;78.78;98453.19;5079219;28;20048;-78
2022/04/07 09:41:29;;;;;;;14.00;3.05;;;;;;;9.41;80.68;98424.91;5081183;28;20037;-77
2022/04/07 09:43:59;;;;;;;8.10;2.30;;;;;;;9.31;81.58;98431.25;5081885;28;20036;-76
2022/04/07 09:46:38;;;;;;;14.07;3.00;;;;;;;9.29;81.04;98435.66;5082635;28;20055;-77
2022/04/07 09:49:08;;;;;;;11.35;2.83;;;;;;;9.31;80.76;98423.41;5081659;28;20437;-76
2022/04/07 09:51:45;;;;;;;6.65;2.30;;;;;;;9.17;78.86;98438.50;5081438;28;20052;-78
2022/04/07 09:54:21;;;;;;;16.58;3.33;;;;;;;9.13;79.40;98452.53;5080588;28;20442;-78
2022/04/07 09:56:52;;;;;;;10.45;3.03;;;;;;;9.13;78.93;98460.38;5080563;28;20056;-77
2022/04/07 09:59:22;;;;;;;16.23;2.75;;;;;;;9.03;78.54;98440.53;5080240;28;20067;-77
2022/04/07 10:01:53;;;;;;;11.27;2.97;;;;;;;9.01;78.75;98452.75;5080291;28;20059;-74
2022/04/07 10:04:25;;;;;;;10.20;2.83;;;;;;;8.97;76.80;98441.50;5079892;28;20051;-75
2022/04/07 10:06:56;;;;;;;19.08;3.17;;;;;;;9.12;77.25;98466.50;5078339;28;20048;-74
2022/04/07 10:09:24;;;;;;;14.38;2.45;;;;;;;9.15;77.34;98463.81;5077173;28;20064;-75
2022/04/07 10:11:53;;;;;;;18.02;3.10;;;;;;;9.21;77.23;98448.00;5075947;28;20079;-73
2022/04/07 10:14:22;;;;;;;11.40;3.03;;;;;;;9.22;76.43;98475.03;5057090;28;20045;-74
2022/04/07 10:16:52;;;;;;;14.63;2.97;;;;;;;9.33;77.74;98473.06;5075188;28;20368;-74
2022/04/07 10:19:27;;;;;;;16.58;4.13;;;;;;;9.23;75.42;98467.16;5074935;28;20056;-76
2022/04/07 10:22:26;;;;;;;11.50;3.17;;;;;;;9.30;75.62;98463.53;5075289;28;20048;-77
2022/04/07 10:25:03;;;;;;;13.75;3.28;;;;;;;9.31;75.68;98456.53;5075606;28;20037;-77
2022/04/07 10:27:40;;;;;;;13.13;3.15;;;;;;;9.27;76.57;98481.91;5075164;28;20040;-77
2022/04/07 10:30:11;;;;;;;13.07;3.00;;;;;;;9.22;74.99;98460.19;5075675;28;20103;-77
2022/04/07 10:32:42;;;;;;;13.57;3.75;;;;;;;9.36;74.80;98473.84;5074415;28;20120;-77
2022/04/07 10:35:12;;;;;;;12.18;3.35;;;;;;;9.34;72.69;98459.09;5074998;28;20048;-78
2022/04/07 10:37:52;;;;;;;27.98;4.00;;;;;;;9.50;73.68;98466.59;5075212;28;20079;-77
2022/04/07 10:40:40;;;;;;;12.15;2.92;;;;;;;9.88;71.52;98467.53;5075507;28;20052;-77
2022/04/07 10:43:22;;;;;;;16.05;4.47;;;;;;;9.96;72.82;98459.50;5075108;28;20078;-78
2022/04/07 10:45:53;;;;;;;13.70;3.10;;;;;;;10.18;69.95;98457.28;5074965;28;20124;-77
2022/04/07 10:48:29;;;;;;;13.02;2.97;;;;;;;10.37;70.45;98469.94;5075297;28;20044;-76
2022/04/07 10:51:00;;;;;;;19.98;4.00;;;;;;;10.35;70.18;98470.88;5075305;28;20135;-75
2022/04/07 10:53:32;;;;;;;8.23;3.20;;;;;;;10.30;69.59;98485.84;5075032;28;20101;-77
2022/04/07 10:56:06;;;;;;;19.42;3.17;;;;;;;10.41;69.69;98502.16;5074998;28;20052;-76
2022/04/07 10:58:41;;;;;;;19.42;3.92;;;;;;;10.13;68.72;98492.28;5073999;28;20044;-77
2022/04/07 11:01:14;;;;;;;16.15;3.53;;;;;;;10.50;70.15;98480.97;5074611;28;20350;-77
2022/04/07 11:04:22;;;;;;;10.30;2.92;;;;;;;10.99;69.17;98485.00;5073879;28;20132;-77
2022/04/07 11:07:22;;;;;;;15.38;3.60;;;;;;;10.75;67.51;98505.69;5073862;28;20110;-77
2022/04/07 11:10:13;;;;;;;11.15;2.88;;;;;;;10.79;66.91;98488.97;5074536;28;20131;-76
2022/04/07 11:13:02;;;;;;;16.67;3.72;;;;;;;10.95;66.76;98499.94;5073470;28;20098;-76
2022/04/07 11:15:59;;;;;;;12.20;2.80;;;;;;;11.01;65.35;98506.78;5074192;28;20051;-77
2022/04/07 11:18:56;;;;;;;14.27;3.25;;;;;;;11.06;66.98;98507.53;5075062;28;20049;-77
2022/04/07 11:21:25;;;;;;;12.68;3.00;;;;;;;10.92;66.78;98513.13;5074917;28;20044;-76
2022/04/07 11:23:56;;;;;;;13.48;3.03;;;;;;;11.12;66.18;98512.63;5075098;28;20040;-77
2022/04/07 11:26:27;;;;;;;13.13;3.00;;;;;;;11.07;64.99;98494.38;5075504;28;20053;-77
2022/04/07 11:29:05;;;;;;;13.35;3.67;;;;;;;10.91;64.84;98490.44;5074622;28;20132;-77
2022/04/07 11:31:53;;;;;;;16.70;3.22;;;;;;;10.52;63.83;98508.00;5074756;28;20490;-76
2022/04/07 11:34:55;;;;;;;9.13;2.70;;;;;;;10.77;65.87;98514.38;5074354;28;20128;-77
2022/04/07 11:37:23;;;;;;;11.60;3.20;;;;;;;10.93;65.50;98508.75;5074842;28;20049;-78
2022/04/07 11:39:54;;;;;;;18.13;3.58;;;;;;;10.85;64.07;98518.56;5074334;28;20090;-77
2022/04/07 11:42:24;;;;;;;14.70;4.53;;;;;;;10.76;65.29;98524.91;5075834;28;20048;-77
2022/04/07 11:44:59;;;;;;;12.90;2.92;;;;;;;10.68;64.71;98530.31;5077624;28;20044;-78
2022/04/07 11:47:30;;;;;;;16.95;3.50;;;;;;;10.65;64.46;98519.06;5077940;28;20090;-77
2022/04/07 11:50:02;;;;;;;13.57;2.92;;;;;;;11.07;63.74;98512.75;5078201;28;20441;-77